createdAt,value
2022-10-19T00:03:01.777Z,1.80
2022-10-19T00:06:27.460Z,2.60
2022-10-19T00:09:39.846Z,1.50
2022-10-19T00:12:51.524Z,2.38
2022-10-19T00:16:04.240Z,2.73
2022-10-19T00:19:20.872Z,3.15
2022-10-19T00:22:32.721Z,2.38
2022-10-19T00:25:44.949Z,3.65
2022-10-19T00:29:00.781Z,3.03
2022-10-19T00:32:12.985Z,3.98
2022-10-19T00:35:24.966Z,4.20
2022-10-19T00:38:36.701Z,5.43
2022-10-19T00:41:50.318Z,5.23
2022-10-19T00:45:21.332Z,5.20
2022-10-19T00:48:36.958Z,5.48
2022-10-19T00:51:51.536Z,4.20
2022-10-19T00:55:04.935Z,7.03
2022-10-19T00:58:17.153Z,5.65
2022-10-19T01:01:32.838Z,4.93
2022-10-19T01:04:49.027Z,4.60
2022-10-19T01:08:01.760Z,4.50
2022-10-19T01:11:34.310Z,4.73
2022-10-19T01:14:54.698Z,4.70
2022-10-19T01:18:15.933Z,5.35
2022-10-19T01:21:34.422Z,7.75
2022-10-19T01:25:06.225Z,6.03
2022-10-19T01:28:35.649Z,5.98
2022-10-19T01:31:53.156Z,8.05
2022-10-19T01:35:10.015Z,5.45
2022-10-19T01:38:33.288Z,6.68
2022-10-19T01:41:51.815Z,6.50
2022-10-19T01:45:08.928Z,7.98
2022-10-19T01:48:25.446Z,9.30
2022-10-19T01:51:42.101Z,7.18
2022-10-19T01:54:58.144Z,10.05
2022-10-19T01:58:13.988Z,8.15
2022-10-19T02:01:29.028Z,7.60
2022-10-19T02:04:41.645Z,7.98
2022-10-19T02:07:59.195Z,10.15
2022-10-19T02:11:12.052Z,8.40
2022-10-19T02:14:28.461Z,7.78
2022-10-19T02:17:46.413Z,8.33
2022-10-19T02:20:58.385Z,11.40
2022-10-19T02:24:10.590Z,14.48
2022-10-19T02:27:23.018Z,10.25
2022-10-19T02:30:34.808Z,11.78
2022-10-19T02:33:46.952Z,10.55
2022-10-19T02:36:59.435Z,10.13
2022-10-19T02:40:14.599Z,10.28
2022-10-19T02:43:28.044Z,15.30
2022-10-19T02:46:44.940Z,10.98
2022-10-19T02:49:57.779Z,10.03
2022-10-19T02:53:09.353Z,10.55
2022-10-19T02:56:20.959Z,10.35
2022-10-19T02:59:35.877Z,13.25
2022-10-19T03:02:48.204Z,11.15
2022-10-19T03:06:01.000Z,11.13
2022-10-19T03:09:13.332Z,10.78
2022-10-19T03:12:24.910Z,13.05
2022-10-19T03:15:36.616Z,12.38
2022-10-19T03:18:48.472Z,11.30
2022-10-19T03:22:00.208Z,11.68
2022-10-19T03:25:13.288Z,10.43
2022-10-19T03:28:24.960Z,12.93
2022-10-19T03:31:36.775Z,13.88
2022-10-19T03:34:48.338Z,12.73
2022-10-19T03:37:59.903Z,13.45
2022-10-19T03:41:15.200Z,15.10
2022-10-19T03:44:27.214Z,14.50
2022-10-19T03:47:38.894Z,15.65
2022-10-19T03:50:50.489Z,14.05
2022-10-19T03:54:06.193Z,13.93
2022-10-19T03:57:18.516Z,17.73
2022-10-19T04:00:30.446Z,18.25
2022-10-19T04:03:42.079Z,17.70
2022-10-19T04:06:55.378Z,18.43
2022-10-19T04:10:07.119Z,17.00
2022-10-19T04:13:18.708Z,21.53
2022-10-19T04:16:32.614Z,19.08
2022-10-19T04:19:44.291Z,21.95
2022-10-19T04:22:57.833Z,22.65
2022-10-19T04:26:11.754Z,23.50
2022-10-19T04:29:29.482Z,20.20
2022-10-19T04:32:39.791Z,21.43
2022-10-19T04:35:51.294Z,22.10
2022-10-19T04:39:02.899Z,22.33
2022-10-19T04:42:14.458Z,22.05
2022-10-19T04:45:25.998Z,23.40
2022-10-19T04:48:37.997Z,21.85
2022-10-19T04:51:49.575Z,25.90
2022-10-19T04:55:01.195Z,21.77
2022-10-19T04:58:12.836Z,20.95
2022-10-19T05:01:26.699Z,20.45
2022-10-19T05:04:41.817Z,22.18
2022-10-19T05:07:54.345Z,25.45
2022-10-19T05:11:11.882Z,21.95
2022-10-19T05:14:23.418Z,16.78
2022-10-19T05:17:37.471Z,18.25
2022-10-19T05:20:49.164Z,22.90
2022-10-19T05:24:02.193Z,22.83
2022-10-19T05:27:14.045Z,21.75
2022-10-19T05:30:26.307Z,19.20
2022-10-19T05:33:38.144Z,20.85
2022-10-19T05:36:49.738Z,20.43
2022-10-19T05:40:01.681Z,25.15
2022-10-19T05:43:14.560Z,24.63
2022-10-19T05:46:26.421Z,21.08
2022-10-19T05:49:38.281Z,22.43
2022-10-19T05:52:49.920Z,22.30
2022-10-19T05:56:01.718Z,20.03
2022-10-19T05:59:17.928Z,20.98
2022-10-19T06:02:29.725Z,24.35
2022-10-19T06:05:43.562Z,20.08
2022-10-19T06:08:55.954Z,23.63
2022-10-19T06:12:07.756Z,20.18
2022-10-19T06:15:19.725Z,19.83
2022-10-19T06:18:31.377Z,20.85
2022-10-19T06:21:45.678Z,19.23
2022-10-19T06:24:57.351Z,19.68
2022-10-19T06:28:09.714Z,21.58
2022-10-19T06:31:21.939Z,23.70
2022-10-19T06:34:33.558Z,22.18
2022-10-19T06:37:45.242Z,25.75
2022-10-19T06:40:56.957Z,28.08
2022-10-19T06:44:09.681Z,20.43
2022-10-19T06:47:21.324Z,18.48
2022-10-19T06:50:32.921Z,19.68
2022-10-19T06:53:44.592Z,15.25
2022-10-19T06:56:56.092Z,16.15
2022-10-19T07:00:08.569Z,13.88
2022-10-19T07:03:20.362Z,17.53
2022-10-19T07:06:34.252Z,17.33
2022-10-19T07:09:45.820Z,14.83
2022-10-19T07:12:57.590Z,12.43
2022-10-19T07:16:17.592Z,21.85
2022-10-19T07:19:29.452Z,16.80
2022-10-19T07:22:41.128Z,19.35
2022-10-19T07:25:53.892Z,13.50
2022-10-19T07:29:05.838Z,14.05
2022-10-19T07:32:17.538Z,12.63
2022-10-19T07:35:29.233Z,19.85
2022-10-19T07:38:41.727Z,20.13
2022-10-19T07:41:53.713Z,19.83
2022-10-19T07:45:05.248Z,14.70
2022-10-19T07:48:16.968Z,17.10
2022-10-19T07:51:30.230Z,18.50
2022-10-19T07:54:42.008Z,18.20
2022-10-19T07:57:56.133Z,20.20
2022-10-19T08:01:13.539Z,22.60
2022-10-19T08:07:41.776Z,18.83
2022-10-19T08:10:53.310Z,21.77
2022-10-19T08:14:06.664Z,16.30
2022-10-19T08:17:20.563Z,14.55
2022-10-19T08:20:32.517Z,13.88
2022-10-19T08:23:44.149Z,15.75
2022-10-19T08:26:56.031Z,15.33
2022-10-19T08:30:08.048Z,15.55
2022-10-19T08:33:19.730Z,15.90
2022-10-19T08:36:32.531Z,14.48
2022-10-19T08:39:44.323Z,19.25
2022-10-19T08:43:04.722Z,21.80
2022-10-19T08:46:22.671Z,15.35
2022-10-19T08:49:37.597Z,13.25
2022-10-19T08:52:52.087Z,14.65
2022-10-19T08:56:49.793Z,12.53
2022-10-19T08:59:56.449Z,15.55
2022-10-19T09:03:23.139Z,14.65
2022-10-19T09:06:36.358Z,8.15
2022-10-19T09:09:53.531Z,32.10
2022-10-19T09:16:22.473Z,15.13
2022-10-19T09:22:54.517Z,14.75
2022-10-19T09:26:09.341Z,16.20
2022-10-19T09:29:27.882Z,12.48
2022-10-19T09:32:42.442Z,11.68
2022-10-19T09:35:55.237Z,17.53
2022-10-19T09:39:09.576Z,10.83
2022-10-19T09:42:29.475Z,9.08
2022-10-19T09:45:47.422Z,13.63
2022-10-19T09:48:59.911Z,9.68
2022-10-19T09:52:13.793Z,8.65
2022-10-19T09:55:45.749Z,11.13
2022-10-19T09:59:00.016Z,8.48
2022-10-19T10:02:26.185Z,8.38
2022-10-19T10:05:43.728Z,12.60
2022-10-19T10:08:59.802Z,13.68
2022-10-19T10:12:13.674Z,13.13
2022-10-19T10:15:46.330Z,9.98
2022-10-19T10:19:05.038Z,12.55
2022-10-19T10:22:32.059Z,9.43
2022-10-19T10:25:44.271Z,7.78
2022-10-19T10:35:33.032Z,9.65
2022-10-19T10:38:47.855Z,9.50
2022-10-19T10:42:00.121Z,6.85
2022-10-19T10:45:20.001Z,8.85
2022-10-19T10:48:37.644Z,12.13
2022-10-19T10:51:54.434Z,16.65
2022-10-19T10:55:11.371Z,9.05
2022-10-19T10:58:29.618Z,11.73
2022-10-19T11:01:45.734Z,7.18
2022-10-19T11:05:03.339Z,10.20
2022-10-19T11:08:25.215Z,10.08
2022-10-19T11:11:43.130Z,8.45
2022-10-19T11:15:00.869Z,3.58
2022-10-19T11:18:23.761Z,7.88
2022-10-19T11:21:40.964Z,13.00
2022-10-19T11:25:08.837Z,14.43
2022-10-19T11:28:38.911Z,7.93
2022-10-19T11:31:55.110Z,6.35
2022-10-19T11:38:22.040Z,4.68
2022-10-19T11:41:40.085Z,7.98
2022-10-19T11:45:03.582Z,10.33
2022-10-19T11:48:52.918Z,8.50
2022-10-19T11:52:10.825Z,7.30
2022-10-19T11:55:32.765Z,6.33
2022-10-19T11:58:55.084Z,6.65
2022-10-19T12:02:16.618Z,4.85
2022-10-19T12:05:33.743Z,6.73
2022-10-19T12:09:00.840Z,6.18
2022-10-19T12:12:37.634Z,6.53
2022-10-19T12:15:54.114Z,7.13
2022-10-19T12:19:08.871Z,5.55
2022-10-19T12:22:25.628Z,9.30
2022-10-19T12:25:38.408Z,7.83
2022-10-19T12:28:56.734Z,11.15
2022-10-19T12:32:10.837Z,6.50
2022-10-19T12:35:40.013Z,9.08
2022-10-19T12:39:00.939Z,6.40
2022-10-19T12:42:20.187Z,7.78
2022-10-19T12:45:37.189Z,11.00
2022-10-19T12:52:00.242Z,4.55
2022-10-19T12:55:34.881Z,5.75
2022-10-19T12:58:57.631Z,6.78
2022-10-19T13:02:20.812Z,6.75
2022-10-19T13:05:34.869Z,11.05
2022-10-19T13:08:50.470Z,6.13
2022-10-19T13:12:47.787Z,7.78
2022-10-19T13:16:00.587Z,5.35
2022-10-19T13:19:27.868Z,9.83
2022-10-19T13:22:39.570Z,4.75
2022-10-19T13:25:51.678Z,10.43
2022-10-19T13:29:03.825Z,9.73
2022-10-19T13:32:47.464Z,6.10
2022-10-19T13:36:13.330Z,12.23
2022-10-19T13:39:25.298Z,7.95
2022-10-19T13:42:37.967Z,9.10
2022-10-19T13:45:50.179Z,12.13
2022-10-19T13:49:30.276Z,11.58
2022-10-19T13:53:05.508Z,11.60
2022-10-19T13:56:49.758Z,5.35
2022-10-19T14:00:28.130Z,7.25
2022-10-19T14:04:16.277Z,7.83
2022-10-19T14:07:33.911Z,6.50
2022-10-19T14:11:00.774Z,8.75
2022-10-19T14:17:37.683Z,7.90
2022-10-19T14:21:05.212Z,9.60
2022-10-19T14:24:36.148Z,7.93
2022-10-19T14:27:48.581Z,7.00
2022-10-19T14:31:06.514Z,9.55
2022-10-19T14:34:20.087Z,7.68
2022-10-19T14:37:33.924Z,9.03
2022-10-19T14:40:47.453Z,10.88
2022-10-19T14:43:59.752Z,16.20
2022-10-19T14:47:27.468Z,10.78
2022-10-19T14:50:47.933Z,10.70
2022-10-19T14:54:04.358Z,9.48
2022-10-19T14:57:23.272Z,12.10
2022-10-19T15:00:38.121Z,10.58
2022-10-19T15:03:53.052Z,12.18
2022-10-19T15:07:08.879Z,7.03
2022-10-19T15:10:31.289Z,9.60
2022-10-19T15:13:48.116Z,6.40
2022-10-19T15:17:03.921Z,10.23
2022-10-19T15:20:30.311Z,8.93
2022-10-19T15:23:47.146Z,7.80
2022-10-19T15:27:09.201Z,11.08
2022-10-19T15:30:30.738Z,6.15
2022-10-19T15:33:49.573Z,9.00
2022-10-19T15:37:08.415Z,12.70
2022-10-19T15:40:29.848Z,10.95
2022-10-19T15:43:51.482Z,13.70
2022-10-19T15:47:27.342Z,9.70
2022-10-19T15:50:45.134Z,9.38
2022-10-19T15:53:59.151Z,10.28
2022-10-19T15:57:33.218Z,8.85
2022-10-19T16:00:46.809Z,13.20
2022-10-19T16:03:59.565Z,9.13
2022-10-19T16:07:12.798Z,10.50
2022-10-19T16:10:28.246Z,10.28
2022-10-19T16:13:39.970Z,11.18
2022-10-19T16:16:59.586Z,15.40
2022-10-19T16:23:22.075Z,10.83
2022-10-19T16:26:34.195Z,7.63
2022-10-19T16:29:46.495Z,8.58
2022-10-19T16:32:58.095Z,9.90
2022-10-19T16:36:17.807Z,5.28
2022-10-19T16:39:29.565Z,10.03
2022-10-19T16:42:41.340Z,6.23
2022-10-19T16:45:53.138Z,5.68
2022-10-19T16:49:05.063Z,6.20
2022-10-19T16:52:20.375Z,8.48
2022-10-19T16:55:34.796Z,10.90
2022-10-19T16:58:47.559Z,6.98
2022-10-19T17:01:59.463Z,8.38
2022-10-19T17:05:12.287Z,8.08
2022-10-19T17:08:36.622Z,6.73
2022-10-19T17:11:49.270Z,7.38
2022-10-19T17:23:00.617Z,13.25
2022-10-19T17:26:14.426Z,10.65
2022-10-19T17:29:27.677Z,8.43
2022-10-19T17:32:42.438Z,10.73
2022-10-19T17:35:54.788Z,8.70
2022-10-19T17:39:09.103Z,11.95
2022-10-19T17:42:20.901Z,8.20
2022-10-19T17:45:32.842Z,8.75
2022-10-19T17:48:46.890Z,9.08
2022-10-19T17:51:59.653Z,9.05
2022-10-19T17:55:13.697Z,7.10
2022-10-19T18:05:16.386Z,6.65
2022-10-19T18:08:28.543Z,6.98
2022-10-19T18:11:43.542Z,7.60
2022-10-19T18:14:55.429Z,6.20
2022-10-19T18:18:07.617Z,6.58
2022-10-19T18:21:24.544Z,5.38
2022-10-19T18:24:36.651Z,5.23
2022-10-19T18:27:48.402Z,7.13
2022-10-19T18:31:00.205Z,6.63
2022-10-19T18:34:16.908Z,9.00
2022-10-19T18:37:29.182Z,7.15
2022-10-19T18:40:43.520Z,7.60
2022-10-19T18:44:01.421Z,7.65
2022-10-19T18:47:13.589Z,7.10
2022-10-19T18:50:25.449Z,6.93
2022-10-19T18:53:38.252Z,8.75
2022-10-19T18:56:49.960Z,8.03
2022-10-19T19:00:01.666Z,7.68
2022-10-19T19:03:14.438Z,16.58
2022-10-19T19:06:29.294Z,8.28
2022-10-19T19:09:42.141Z,10.45
2022-10-19T19:12:57.033Z,8.93
2022-10-19T19:16:09.866Z,9.65
2022-10-19T19:19:24.490Z,9.58
2022-10-19T19:22:36.994Z,12.38
2022-10-19T19:25:49.079Z,9.95
2022-10-19T19:29:01.476Z,11.05
2022-10-19T19:32:13.641Z,9.70
2022-10-19T19:35:25.358Z,9.60
2022-10-19T19:38:38.302Z,10.43
2022-10-19T19:41:50.183Z,16.80
2022-10-19T19:45:02.209Z,13.28
2022-10-19T19:48:16.128Z,14.08
2022-10-19T19:51:28.430Z,9.93
2022-10-19T19:54:40.683Z,14.18
2022-10-19T19:57:54.423Z,9.98
2022-10-19T20:01:07.362Z,9.45
2022-10-19T20:04:20.061Z,10.08
2022-10-19T20:07:31.801Z,12.95
2022-10-19T20:10:47.724Z,14.55
2022-10-19T20:14:00.241Z,11.48
2022-10-19T20:17:11.937Z,10.85
2022-10-19T20:20:23.970Z,13.48
2022-10-19T20:23:36.786Z,14.53
2022-10-19T20:26:48.675Z,12.90
2022-10-19T20:30:01.786Z,13.00
2022-10-19T20:33:13.579Z,9.38
2022-10-19T20:36:27.975Z,11.18
2022-10-19T20:39:41.395Z,12.20
2022-10-19T20:42:53.070Z,12.43
2022-10-19T20:46:12.551Z,10.35
2022-10-19T20:49:24.338Z,12.93
2022-10-19T20:52:36.354Z,9.28
2022-10-19T20:55:48.462Z,10.48
2022-10-19T20:59:04.724Z,14.25
2022-10-19T21:02:18.548Z,11.25
2022-10-19T21:05:30.244Z,14.43
2022-10-19T21:08:43.324Z,15.10
2022-10-19T21:11:56.781Z,13.38
2022-10-19T21:15:08.775Z,11.38
2022-10-19T21:18:23.369Z,10.15
2022-10-19T21:21:37.488Z,13.10
2022-10-19T21:24:49.331Z,13.00
2022-10-19T21:28:01.150Z,10.48
2022-10-19T21:31:14.400Z,8.95
2022-10-19T21:34:29.488Z,10.45
2022-10-19T21:37:41.141Z,9.33
2022-10-19T21:40:52.906Z,10.08
2022-10-19T21:44:04.921Z,11.68
2022-10-19T21:47:16.536Z,12.48
2022-10-19T21:50:28.237Z,10.90
2022-10-19T21:53:39.940Z,9.18
2022-10-19T21:56:53.147Z,7.85
2022-10-19T22:00:05.042Z,9.80
2022-10-19T22:03:18.579Z,9.00
2022-10-19T22:06:30.847Z,10.25
2022-10-19T22:09:42.614Z,8.00
2022-10-19T22:12:54.315Z,11.25
2022-10-19T22:16:13.261Z,9.75
2022-10-19T22:19:26.298Z,10.73
2022-10-19T22:22:38.248Z,9.50
2022-10-19T22:25:50.434Z,10.63
2022-10-19T22:29:03.240Z,12.33
2022-10-19T22:32:14.947Z,8.88
2022-10-19T22:35:26.704Z,7.95
2022-10-19T22:38:38.915Z,9.58
2022-10-19T22:42:57.281Z,7.80
2022-10-19T22:46:21.006Z,12.20
2022-10-19T22:49:33.150Z,9.43
2022-10-19T22:52:44.946Z,11.58
2022-10-19T22:55:57.231Z,10.73
2022-10-19T22:59:12.906Z,7.40
2022-10-19T23:02:24.766Z,5.95
2022-10-19T23:05:36.584Z,10.20
2022-10-19T23:08:48.571Z,10.13
2022-10-19T23:12:00.384Z,5.48
2022-10-19T23:15:14.748Z,5.83
2022-10-19T23:18:26.603Z,7.35
2022-10-19T23:21:38.368Z,7.68
2022-10-19T23:24:50.087Z,4.95
2022-10-19T23:28:01.781Z,5.98
2022-10-19T23:31:16.496Z,7.08
2022-10-19T23:34:28.378Z,5.18
2022-10-19T23:37:41.088Z,6.83
2022-10-19T23:40:53.197Z,3.90
2022-10-19T23:44:04.738Z,7.08
2022-10-19T23:47:16.274Z,6.63
2022-10-19T23:50:27.929Z,5.38
2022-10-19T23:53:42.712Z,6.18
2022-10-19T23:56:54.354Z,8.35
